Stanley, NC (28164)

3:09 AM EST on January 20, 2017 (GMT -0500)
Abernathy Hardware | | Change Station

Elev 825 ft 35.35 °N, 81.09 °W | Updated 157 days ago

Mostly Cloudy
Mostly Cloudy
81.9 °F
Feels Like 86 °F
N
1.6
Wind Variable Wind from West
Gusts 2.2 mph

Today
High -- | Low -- °F
--% Chance of Precip.
Yesterday
High -- | Low -- °F
Precip. -- in
Pressure 29.87 in
Visibility 10.0 miles
Clouds Mostly Cloudy 4000 ft
Heat Index 86 °F
Dew Point 71.2 °F
Humidity 70%
Rainfall in
Snow Depth Not available.
7:30 AM 5:40 PM
Last Quarter, 46% visible
METAR KAKH 200754Z AUTO 08003KT 10SM BKN040 12/06 A2987 RMK AO2 PRESFR SLP114 T01170056
Pressure 29.87 in
Visibility 10.0 miles
Clouds Mostly Cloudy 4000 ft
Heat Index 86 °F
Dew Point 71.2 °F
Humidity 70%
Rainfall in
Snow Depth Not available.
7:30 AM 5:40 PM
Last Quarter, 46% visible
METAR KAKH 200754Z AUTO 08003KT 10SM BKN040 12/06 A2987 RMK AO2 PRESFR SLP114 T01170056

Get Your Daily Forecast Email!

Thanks for signing up!

Be on the lookout for a verification email in your inbox.

You'll start receiving the daily forecast at 8 AM.

×

10-Day Weather Forecast

Almanac

Astronomy

Jan. 20, 2017 Rise Set
Actual Time
Civil Twilight
Nautical Twilight
Astronomical Twilight
Moon
Length of Visible Light
Length of Day
Tomorrow will be .
, % of the Moon is Illuminated

Today's Extremes

State Highs State Lows

Community

WunderPhotos

Upload Photos

1,962,540 photos uploaded!

WunderBlog® & News

Nearby

Air Quality

  Air Quality AQ Index Pollutant
Not available.

Snow Depth

Station Depth Elevation

Earthquake Activity

City Distance Mag. Time & Date
Minimum magnitude displayed is 2.5.

Coastal Water Temperatures

Place Temperature

Stations

Nearby Weather Stations

Station Location Temp. Windchill Dew Point Humidity Wind Precip. Elev Updated Type
                   

Watches & Warnings

There are currently no watches in effect.